Rosaria Lauro — IXXO — position and weather

sailwx.info

Track history (hours):
 
Tides and Currents Weather Stations Pressure Air Temp Water Temp Dewpoint Dewpoint Depression Visibility Wind Speed Wind Dir Waves Ship Positions

Rosaria Lauro

Last reported at 2014-Dec-20 20:17 UTC. Time now 2014-Dec-21 04:47 UTC.
Position N 40°45' E 013°56'.

Length 40 m; draft 1.1 m.

Type: Passenger vessel. MMSI: 247055900.

Date/timePositionNaut miles runAvg speedWind from/ knotsBaromVisibWave heightAir tempDewpointWater temp
2014-Dec-20 20:17N 40°45' E 013°56'1620.1
2014-Dec-20 19:29N 40°49' E 014°17'8 8.1
2014-Dec-20 18:34N 40°47' E 014°08'5 5.4
2014-Dec-20 17:34N 40°46' E 014°00'1312.1
2014-Dec-20 16:30N 40°50' E 014°17'1617.3
2014-Dec-20 15:33N 40°45' E 013°56'0 0.1
2014-Dec-20 14:33N 40°45' E 013°56'0 0.0
2014-Dec-20 13:33N 40°45' E 013°56'4 4.1
2014-Dec-20 12:33N 40°46' E 014°01'1211.2
2014-Dec-20 11:30N 40°50' E 014°16'1616.8
2014-Dec-20 10:34N 40°45' E 013°57'0 0.1
2014-Dec-20 09:34N 40°45' E 013°57'1614.3
2014-Dec-20 08:26N 40°50' E 014°17'1618.8
2014-Dec-20 07:34N 40°45' E 013°56'0 0.0
2014-Dec-19 18:06N 40°45' E 013°56'4 6.9
2014-Dec-19 17:33N 40°44' E 013°52'1918.9
2014-Dec-19 16:32N 40°49' E 014°16'10 9.8
2014-Dec-19 15:34N 40°46' E 014°04'6 6.2
2014-Dec-19 14:34N 40°45' E 013°56'16 5.2
2014-Dec-19 11:29N 40°50' E 014°16'1617.1
2014-Dec-19 10:34N 40°45' E 013°57'0 0.1
2014-Dec-19 09:33N 40°45' E 013°57'1611.3
2014-Dec-19 08:09N 40°50' E 014°17'2 2.6
2014-Dec-19 07:23N 40°49' E 014°14'7 8.6
2014-Dec-19 06:34N 40°46' E 014°06'1110.8
2014-Dec-19 05:33N 40°44' E 013°52'0 0.0
2014-Dec-18 17:33N 40°44' E 013°52'2018.7
2014-Dec-18 16:30N 40°49' E 014°17'9 9.8
2014-Dec-18 15:34N 40°46' E 014°05'7 6.9
2014-Dec-18 14:33N 40°45' E 013°56'1611.8
2014-Dec-18 13:11N 40°50' E 014°17'1117.9
2014-Dec-18 12:33N 40°39' E 014°22'1111.1
2014-Dec-18 11:31N 40°50' E 014°16'1313.1
2014-Dec-18 10:33N 40°38' E 014°23'1312.6
2014-Dec-18 09:33N 40°50' E 014°16'1212.3
2014-Dec-18 08:33N 40°39' E 014°23'15 7.5
2014-Dec-18 06:34N 40°46' E 014°05'1110.6
2014-Dec-18 05:33N 40°44' E 013°52'0 0.0
2014-Dec-17 17:34N 40°44' E 013°52'1918.2
2014-Dec-17 16:31N 40°49' E 014°16'8 8.8
2014-Dec-17 15:33N 40°46' E 014°06'7 7.0
2014-Dec-17 14:33N 40°45' E 013°56'16 5.3
2014-Dec-17 11:33N 40°50' E 014°17'1616.4
2014-Dec-17 10:34N 40°45' E 013°56'1 0.5
2014-Dec-17 09:34N 40°45' E 013°56'8 2.7
2014-Dec-17 06:34N 40°46' E 014°07'1211.8
2014-Dec-17 05:34N 40°44' E 013°52'4 0.3
2014-Dec-16 15:16N 40°45' E 013°56'4 5.9
2014-Dec-16 14:33N 40°46' E 014°01'13 2.6
2014-Dec-16 09:31N 40°48' E 014°18'9 9.5
2014-Dec-16 08:33N 40°40' E 014°22'11 7.7
2014-Dec-16 07:04N 40°50' E 014°16'918.9
2014-Dec-16 06:34N 40°46' E 014°05'1010.3
2014-Dec-16 05:33N 40°44' E 013°52'0 0.0
2014-Dec-15 17:34N 40°44' E 013°52'2018.6
2014-Dec-15 16:30N 40°49' E 014°17'1010.1
2014-Dec-15 15:34N 40°46' E 014°05'7 6.6
2014-Dec-15 14:33N 40°45' E 013°56'16 5.4
2014-Dec-15 11:32N 40°50' E 014°17'1616.6
2014-Dec-15 10:34N 40°45' E 013°56'0 0.4
2014-Dec-15 09:34N 40°45' E 013°56'1611.7
2014-Dec-15 08:11N 40°50' E 014°16'2 2.8
2014-Dec-15 07:27N 40°49' E 014°14'7 7.8
2014-Dec-15 06:33N 40°46' E 014°05'7 0.2
2014-Dec-13 20:15N 40°45' E 013°56'1319.3
2014-Dec-13 19:33N 40°48' E 014°14'4 3.6
2014-Dec-13 18:33N 40°47' E 014°09'7 6.8
2014-Dec-13 17:34N 40°46' E 014°00'1312.5
2014-Dec-13 16:30N 40°50' E 014°17'1617.2
2014-Dec-13 15:33N 40°45' E 013°56'0 0.1
2014-Dec-13 14:34N 40°45' E 013°56'0 0.0
2014-Dec-13 13:34N 40°45' E 013°56'3 3.1
2014-Dec-13 12:34N 40°46' E 014°00'1311.8
2014-Dec-13 11:26N 40°50' E 014°17'1618.4
2014-Dec-13 10:34N 40°45' E 013°56'2 1.8
2014-Dec-13 09:33N 40°46' E 013°59'1413.9
2014-Dec-13 08:34N 40°50' E 014°16'1615.8
2014-Dec-13 07:34N 40°45' E 013°56'4 0.3
2014-Dec-12 17:33N 40°44' E 013°52'2019.0
2014-Dec-12 16:31N 40°49' E 014°17'9 9.4
2014-Dec-12 15:34N 40°46' E 014°06'7 7.1
2014-Dec-12 14:34N 40°45' E 013°56'16 5.2
2014-Dec-12 11:31N 40°50' E 014°16'1616.4
2014-Dec-12 10:34N 40°45' E 013°57'0 0.3
2014-Dec-12 09:34N 40°45' E 013°56'1611.1
2014-Dec-12 08:09N 40°50' E 014°16'2 2.1
2014-Dec-12 07:20N 40°49' E 014°14'5 6.6
2014-Dec-12 06:33N 40°47' E 014°08'1312.6
2014-Dec-12 05:34N 40°46' E 013°52'1 0.1
2014-Dec-11 17:34N 40°44' E 013°52'1918.6
2014-Dec-11 16:31N 40°49' E 014°16'9 9.2
2014-Dec-11 15:34N 40°46' E 014°05'7 7.2
2014-Dec-11 14:34N 40°45' E 013°56'16 5.4
2014-Dec-11 11:31N 40°50' E 014°16'1616.3
2014-Dec-11 10:34N 40°45' E 013°57'0 0.0
2014-Dec-11 09:33N 40°45' E 013°57'14 6.3
2014-Dec-11 07:21N 40°49' E 014°14'6 7.4
2014-Dec-11 06:34N 40°46' E 014°07'1211.7
2014-Dec-11 05:34N 40°46' E 013°52'  
Track history (hours):
 
Tides and Currents Weather Stations Pressure Air Temp Water Temp Dewpoint Dewpoint Depression Visibility Wind Speed Wind Dir Waves Ship Positions

Rosaria Lauro

Last reported at 2014-Dec-20 20:17 UTC. Time now 2014-Dec-21 04:47 UTC.
Position N 40°45' E 013°56'.

Length 40 m; draft 1.1 m.

Type: Passenger vessel. MMSI: 247055900.

Date/timePositionNaut miles runAvg speedWind from/ knotsBaromVisibWave heightAir tempDewpointWater temp
2014-Dec-20 20:17N 40°45' E 013°56'1620.1
2014-Dec-20 19:29N 40°49' E 014°17'8 8.1
2014-Dec-20 18:34N 40°47' E 014°08'5 5.4
2014-Dec-20 17:34N 40°46' E 014°00'1312.1
2014-Dec-20 16:30N 40°50' E 014°17'1617.3
2014-Dec-20 15:33N 40°45' E 013°56'0 0.1
2014-Dec-20 14:33N 40°45' E 013°56'0 0.0
2014-Dec-20 13:33N 40°45' E 013°56'4 4.1
2014-Dec-20 12:33N 40°46' E 014°01'1211.2
2014-Dec-20 11:30N 40°50' E 014°16'1616.8
2014-Dec-20 10:34N 40°45' E 013°57'0 0.1
2014-Dec-20 09:34N 40°45' E 013°57'1614.3
2014-Dec-20 08:26N 40°50' E 014°17'1618.8
2014-Dec-20 07:34N 40°45' E 013°56'0 0.0
2014-Dec-19 18:06N 40°45' E 013°56'4 6.9
2014-Dec-19 17:33N 40°44' E 013°52'1918.9
2014-Dec-19 16:32N 40°49' E 014°16'10 9.8
2014-Dec-19 15:34N 40°46' E 014°04'6 6.2
2014-Dec-19 14:34N 40°45' E 013°56'16 5.2
2014-Dec-19 11:29N 40°50' E 014°16'1617.1
2014-Dec-19 10:34N 40°45' E 013°57'0 0.1
2014-Dec-19 09:33N 40°45' E 013°57'1611.3
2014-Dec-19 08:09N 40°50' E 014°17'2 2.6
2014-Dec-19 07:23N 40°49' E 014°14'7 8.6
2014-Dec-19 06:34N 40°46' E 014°06'1110.8
2014-Dec-19 05:33N 40°44' E 013°52'0 0.0
2014-Dec-18 17:33N 40°44' E 013°52'2018.7
2014-Dec-18 16:30N 40°49' E 014°17'9 9.8
2014-Dec-18 15:34N 40°46' E 014°05'7 6.9
2014-Dec-18 14:33N 40°45' E 013°56'1611.8
2014-Dec-18 13:11N 40°50' E 014°17'1117.9
2014-Dec-18 12:33N 40°39' E 014°22'1111.1
2014-Dec-18 11:31N 40°50' E 014°16'1313.1
2014-Dec-18 10:33N 40°38' E 014°23'1312.6
2014-Dec-18 09:33N 40°50' E 014°16'1212.3
2014-Dec-18 08:33N 40°39' E 014°23'15 7.5
2014-Dec-18 06:34N 40°46' E 014°05'1110.6
2014-Dec-18 05:33N 40°44' E 013°52'0 0.0
2014-Dec-17 17:34N 40°44' E 013°52'1918.2
2014-Dec-17 16:31N 40°49' E 014°16'8 8.8
2014-Dec-17 15:33N 40°46' E 014°06'7 7.0
2014-Dec-17 14:33N 40°45' E 013°56'16 5.3
2014-Dec-17 11:33N 40°50' E 014°17'1616.4
2014-Dec-17 10:34N 40°45' E 013°56'1 0.5
2014-Dec-17 09:34N 40°45' E 013°56'8 2.7
2014-Dec-17 06:34N 40°46' E 014°07'1211.8
2014-Dec-17 05:34N 40°44' E 013°52'4 0.3
2014-Dec-16 15:16N 40°45' E 013°56'4 5.9
2014-Dec-16 14:33N 40°46' E 014°01'13 2.6
2014-Dec-16 09:31N 40°48' E 014°18'9 9.5
2014-Dec-16 08:33N 40°40' E 014°22'11 7.7
2014-Dec-16 07:04N 40°50' E 014°16'918.9
2014-Dec-16 06:34N 40°46' E 014°05'1010.3
2014-Dec-16 05:33N 40°44' E 013°52'0 0.0
2014-Dec-15 17:34N 40°44' E 013°52'2018.6
2014-Dec-15 16:30N 40°49' E 014°17'1010.1
2014-Dec-15 15:34N 40°46' E 014°05'7 6.6
2014-Dec-15 14:33N 40°45' E 013°56'16 5.4
2014-Dec-15 11:32N 40°50' E 014°17'1616.6
2014-Dec-15 10:34N 40°45' E 013°56'0 0.4
2014-Dec-15 09:34N 40°45' E 013°56'1611.7
2014-Dec-15 08:11N 40°50' E 014°16'2 2.8
2014-Dec-15 07:27N 40°49' E 014°14'7 7.8
2014-Dec-15 06:33N 40°46' E 014°05'7 0.2
2014-Dec-13 20:15N 40°45' E 013°56'1319.3
2014-Dec-13 19:33N 40°48' E 014°14'4 3.6
2014-Dec-13 18:33N 40°47' E 014°09'7 6.8
2014-Dec-13 17:34N 40°46' E 014°00'1312.5
2014-Dec-13 16:30N 40°50' E 014°17'1617.2
2014-Dec-13 15:33N 40°45' E 013°56'0 0.1
2014-Dec-13 14:34N 40°45' E 013°56'0 0.0
2014-Dec-13 13:34N 40°45' E 013°56'3 3.1
2014-Dec-13 12:34N 40°46' E 014°00'1311.8
2014-Dec-13 11:26N 40°50' E 014°17'1618.4
2014-Dec-13 10:34N 40°45' E 013°56'2 1.8
2014-Dec-13 09:33N 40°46' E 013°59'1413.9
2014-Dec-13 08:34N 40°50' E 014°16'1615.8
2014-Dec-13 07:34N 40°45' E 013°56'4 0.3
2014-Dec-12 17:33N 40°44' E 013°52'2019.0
2014-Dec-12 16:31N 40°49' E 014°17'9 9.4
2014-Dec-12 15:34N 40°46' E 014°06'7 7.1
2014-Dec-12 14:34N 40°45' E 013°56'16 5.2
2014-Dec-12 11:31N 40°50' E 014°16'1616.4
2014-Dec-12 10:34N 40°45' E 013°57'0 0.3
2014-Dec-12 09:34N 40°45' E 013°56'1611.1
2014-Dec-12 08:09N 40°50' E 014°16'2 2.1
2014-Dec-12 07:20N 40°49' E 014°14'5 6.6
2014-Dec-12 06:33N 40°47' E 014°08'1312.6
2014-Dec-12 05:34N 40°46' E 013°52'1 0.1
2014-Dec-11 17:34N 40°44' E 013°52'1918.6
2014-Dec-11 16:31N 40°49' E 014°16'9 9.2
2014-Dec-11 15:34N 40°46' E 014°05'7 7.2
2014-Dec-11 14:34N 40°45' E 013°56'16 5.4
2014-Dec-11 11:31N 40°50' E 014°16'1616.3
2014-Dec-11 10:34N 40°45' E 013°57'0 0.0
2014-Dec-11 09:33N 40°45' E 013°57'14 6.3
2014-Dec-11 07:21N 40°49' E 014°14'6 7.4
2014-Dec-11 06:34N 40°46' E 014°07'1211.7
2014-Dec-11 05:34N 40°46' E 013°52'  

Dump ship's entire track history